Ashton, South Dakota
Current Conditions -  °F | °C
As of 6:48 AM on Wednesday 26 Nov 2014 (Local Time) from KABR Reporting Station
Scattered Clouds Scattered Clouds  
Wind Chill: -11°   Ceiling: Unl
Heat Index:   Visibility: 10mi
Dew Point:   Wind: 21mph
Humidity: 79%   Direction: 350°N
Pressure: 30.26"   Gusts: NA
Location:  44.99°N, 98.5°W
Report Text: KABR 261248Z AUTO 35018KT 10SM SCT008 M13/M16 A3026 RMK AO2
Loading
Personal Weather Stations






























Interactive Weather Map New forecast layout! Learn more

10-Day Weather Forecast

Advertisements
Track Severe Weather on mobile